Point Pleasant, Pennsylvania
Current Conditions -  °F | °C
As of 4:54 PM on Friday 24 Oct 2014 (Local Time) from KDYL Reporting Station
Clear Clear  
Wind Chill: 65°   Ceiling: Unl
Heat Index: 65°   Visibility: 10mi
Dew Point: 42°   Wind: 7mph
Humidity: 43%   Direction: 340°NNW
Pressure: 29.8"   Gusts: NA
Location:  40.42°N, 75.07°W
Report Text: KDYL 242054Z AUTO 34006KT 10SM CLR 18/06 A2980 RMK AO2 SLP089 T01830056 55003
Loading
Personal Weather Stations






























Interactive Weather Map
Tropical Storm Tracking
New forecast layout! Learn more

10-Day Weather Forecast

Advertisements
Track Severe Weather on mobile